createdAt,value
2023-11-18T00:04:57.537Z,31.7
2023-11-18T00:09:57.516Z,34.2
2023-11-18T00:14:57.492Z,33.8
2023-11-18T00:19:57.426Z,34.4
2023-11-18T00:24:57.647Z,32.3
2023-11-18T00:29:57.333Z,31.8
2023-11-18T00:34:57.442Z,31.1
2023-11-18T00:39:57.795Z,28.5
2023-11-18T00:44:57.136Z,30.1
2023-11-18T00:49:59.391Z,28.9
2023-11-18T00:54:58.151Z,29.2
2023-11-18T01:00:04.987Z,29.8
2023-11-18T01:04:58.466Z,30.6
2023-11-18T01:09:58.348Z,28.4
2023-11-18T01:15:01.071Z,26.8
2023-11-18T01:19:57.278Z,27.0
2023-11-18T01:24:58.120Z,28.8
2023-11-18T01:29:57.403Z,29.8
2023-11-18T01:34:58.720Z,29.1
2023-11-18T01:39:57.109Z,27.5
2023-11-18T01:44:57.090Z,27.8
2023-11-18T01:49:57.225Z,25.9
2023-11-18T01:54:58.097Z,27.2
2023-11-18T01:59:57.642Z,25.0
2023-11-18T02:04:56.700Z,26.1
2023-11-18T02:09:56.727Z,25.0
2023-11-18T02:14:57.072Z,23.1
2023-11-18T02:20:16.283Z,23.3
2023-11-18T02:25:11.778Z,23.1
2023-11-18T02:29:56.385Z,25.0
2023-11-18T02:34:57.186Z,24.1
2023-11-18T02:39:55.885Z,23.0
2023-11-18T02:44:55.947Z,21.5
2023-11-18T02:49:58.806Z,25.0
2023-11-18T02:54:55.713Z,22.6
2023-11-18T02:59:57.991Z,23.5
2023-11-18T03:04:55.608Z,22.1
2023-11-18T03:09:55.764Z,23.1
2023-11-18T03:14:55.489Z,22.7
2023-11-18T03:19:55.500Z,22.5
2023-11-18T03:24:55.440Z,21.7
2023-11-18T03:29:56.749Z,23.7
2023-11-18T03:34:58.364Z,21.4
2023-11-18T03:39:55.443Z,21.6
2023-11-18T03:44:55.557Z,22.3
2023-11-18T03:49:55.112Z,22.1
2023-11-18T03:54:55.390Z,23.7
2023-11-18T04:00:00.504Z,22.2
2023-11-18T04:04:56.006Z,21.8
2023-11-18T04:09:54.912Z,23.6
2023-11-18T04:14:54.909Z,22.3
2023-11-18T04:19:58.904Z,21.6
2023-11-18T04:24:54.934Z,24.0
2023-11-18T04:29:54.687Z,21.7
2023-11-18T04:34:54.784Z,22.9
2023-11-18T04:39:54.972Z,22.5
2023-11-18T04:44:54.575Z,22.8
2023-11-18T04:49:55.037Z,23.3
2023-11-18T04:54:54.627Z,22.5
2023-11-18T04:59:55.405Z,21.3
2023-11-18T05:04:54.463Z,22.9
2023-11-18T05:09:54.258Z,22.7
2023-11-18T05:14:54.255Z,23.0
2023-11-18T05:19:54.291Z,23.3
2023-11-18T05:24:54.082Z,22.4
2023-11-18T05:29:54.147Z,23.2
2023-11-18T05:34:54.065Z,21.6
2023-11-18T05:39:53.975Z,22.5
2023-11-18T05:44:53.922Z,21.9
2023-11-18T05:49:53.976Z,23.7
2023-11-18T05:54:53.784Z,24.3
2023-11-18T05:59:53.692Z,22.7
2023-11-18T06:04:53.666Z,24.4
2023-11-18T06:09:53.697Z,23.6
2023-11-18T06:14:53.889Z,24.0
2023-11-18T06:19:53.850Z,24.3
2023-11-18T06:24:53.431Z,24.9
2023-11-18T06:29:53.416Z,24.3
2023-11-18T06:34:53.422Z,24.0
2023-11-18T06:39:53.420Z,24.9
2023-11-18T06:46:26.796Z,24.5
2023-11-18T06:51:27.029Z,24.8
2023-11-18T06:56:26.469Z,24.6
2023-11-18T07:01:26.673Z,23.1
2023-11-18T07:06:26.342Z,24.4
2023-11-18T07:11:26.249Z,24.2
2023-11-18T07:16:26.227Z,23.1
2023-11-18T07:21:26.124Z,23.6
2023-11-18T07:26:26.050Z,23.9
2023-11-18T07:31:26.156Z,23.9
2023-11-18T07:36:25.925Z,23.7
2023-11-18T07:41:25.934Z,23.5
2023-11-18T07:46:25.921Z,22.9
2023-11-18T07:51:25.949Z,23.6
2023-11-18T07:56:25.736Z,22.8
2023-11-18T08:01:25.800Z,23.1
2023-11-18T08:06:25.616Z,23.1
2023-11-18T08:11:25.629Z,23.5
2023-11-18T08:16:25.571Z,23.0
2023-11-18T08:21:25.445Z,22.9
2023-11-18T08:26:25.395Z,22.1
2023-11-18T08:31:25.399Z,21.6
2023-11-18T08:36:25.368Z,20.4
2023-11-18T08:41:25.175Z,16.3
2023-11-18T08:46:25.312Z,15.5
2023-11-18T08:51:25.155Z,15.4
2023-11-18T08:56:25.127Z,16.2
2023-11-18T09:01:24.987Z,16.2
2023-11-18T09:06:25.121Z,12.5
2023-11-18T09:11:25.798Z,11.1
2023-11-18T09:16:25.011Z,11.9
2023-11-18T09:21:24.918Z,10.8
2023-11-18T09:26:24.976Z,10.5
2023-11-18T09:31:24.849Z,11.0
2023-11-18T09:36:24.870Z,12.0
2023-11-18T09:41:24.725Z,10.4
2023-11-18T09:46:24.830Z,9.4
2023-11-18T09:51:24.701Z,9.8
2023-11-18T09:56:24.515Z,9.9
2023-11-18T10:01:24.539Z,8.8
2023-11-18T10:06:24.464Z,9.4
2023-11-18T10:11:24.403Z,9.5
2023-11-18T10:16:24.330Z,8.2
2023-11-18T10:21:24.327Z,8.3
2023-11-18T10:26:24.127Z,9.0
2023-11-18T10:31:24.064Z,8.0
2023-11-18T10:36:24.112Z,7.5
2023-11-18T10:41:24.153Z,8.1
2023-11-18T10:46:23.970Z,7.4
2023-11-18T10:51:23.861Z,6.9
2023-11-18T10:56:23.876Z,7.1
2023-11-18T11:01:23.997Z,6.9
2023-11-18T11:06:23.783Z,7.4
2023-11-18T11:11:23.750Z,6.7
2023-11-18T11:16:23.634Z,6.8
2023-11-18T11:21:23.509Z,7.0
2023-11-18T11:26:23.552Z,5.9
2023-11-18T11:31:23.389Z,5.9
2023-11-18T11:36:23.375Z,6.1
2023-11-18T11:41:23.300Z,9.5
2023-11-18T11:46:23.291Z,9.1
2023-11-18T11:51:23.178Z,11.6
2023-11-18T11:56:23.321Z,10.0
2023-11-18T12:01:23.056Z,12.7
2023-11-18T12:06:23.094Z,22.2
2023-11-18T12:11:23.085Z,10.7
2023-11-18T12:16:23.039Z,9.5
2023-11-18T12:21:22.905Z,9.7
2023-11-18T12:26:22.778Z,7.3
2023-11-18T12:31:23.030Z,7.5
2023-11-18T12:36:23.213Z,6.7
2023-11-18T12:41:22.854Z,6.7
2023-11-18T12:46:23.801Z,5.6
2023-11-18T12:51:22.717Z,5.9
2023-11-18T12:56:22.812Z,7.7
2023-11-18T13:01:22.583Z,6.6
2023-11-18T13:06:24.592Z,6.4
2023-11-18T13:11:22.608Z,6.6
2023-11-18T13:16:22.267Z,24.6
2023-11-18T13:21:22.205Z,15.0
2023-11-18T13:26:22.286Z,12.8
2023-11-18T13:31:22.123Z,6.3
2023-11-18T13:36:22.358Z,6.6
2023-11-18T13:41:22.124Z,7.8
2023-11-18T13:46:21.915Z,4.8
2023-11-18T13:51:21.945Z,5.5
2023-11-18T13:56:21.880Z,7.3
2023-11-18T14:01:21.832Z,10.2
2023-11-18T14:06:21.731Z,5.5
2023-11-18T14:11:21.697Z,5.8
2023-11-18T14:16:21.607Z,4.6
2023-11-18T14:21:21.646Z,4.9
2023-11-18T14:26:21.507Z,4.7
2023-11-18T14:31:21.499Z,7.1
2023-11-18T14:36:21.419Z,4.2
2023-11-18T14:41:21.414Z,6.3
2023-11-18T14:46:21.415Z,3.6
2023-11-18T14:51:21.224Z,4.4
2023-11-18T14:56:21.267Z,4.3
2023-11-18T15:01:21.276Z,4.9
2023-11-18T15:06:21.540Z,4.7
2023-11-18T15:11:21.206Z,4.0
2023-11-18T15:16:21.145Z,4.1
2023-11-18T15:21:21.232Z,10.4
2023-11-18T15:26:20.888Z,5.6
2023-11-18T15:31:20.896Z,3.5
2023-11-18T15:36:21.814Z,5.2
2023-11-18T15:41:25.251Z,6.6
2023-11-18T15:46:20.727Z,6.0
2023-11-18T15:51:20.602Z,3.2
2023-11-18T15:56:20.550Z,2.7
2023-11-18T16:01:20.496Z,3.3
2023-11-18T16:06:20.553Z,3.2
2023-11-18T16:11:20.472Z,3.7
2023-11-18T16:16:20.458Z,3.2
2023-11-18T16:21:20.276Z,5.9
2023-11-18T16:26:20.321Z,3.6
2023-11-18T16:31:20.294Z,2.9
2023-11-18T16:36:20.129Z,21.0
2023-11-18T16:41:21.728Z,5.7
2023-11-18T16:46:20.008Z,2.0
2023-11-18T16:51:19.939Z,3.9
2023-11-18T16:56:20.025Z,9.2
2023-11-18T17:01:20.315Z,2.6
2023-11-18T17:06:22.009Z,26.6
2023-11-18T17:11:23.937Z,18.0
2023-11-18T17:16:20.092Z,3.4
2023-11-18T17:21:19.701Z,10.2
2023-11-18T17:26:19.650Z,4.1
2023-11-18T17:31:19.579Z,5.6
2023-11-18T17:36:19.474Z,2.7
2023-11-18T17:41:22.895Z,7.3
2023-11-18T17:46:19.685Z,11.8
2023-11-18T17:51:19.510Z,15.8
2023-11-18T17:56:19.315Z,5.9
2023-11-18T18:01:20.999Z,29.4
2023-11-18T18:06:19.179Z,4.1
2023-11-18T18:11:19.272Z,1.8
2023-11-18T18:16:19.155Z,5.1
2023-11-18T18:21:19.080Z,6.6
2023-11-18T18:26:20.033Z,1.3
2023-11-18T18:31:20.287Z,6.0
2023-11-18T18:36:20.307Z,6.3
2023-11-18T18:41:18.773Z,9.2
2023-11-18T18:46:19.817Z,4.5
2023-11-18T18:51:18.693Z,8.9
2023-11-18T18:56:18.745Z,12.6
2023-11-18T19:01:19.314Z,4.2
2023-11-18T19:06:18.736Z,5.6
2023-11-18T19:11:19.694Z,4.2
2023-11-18T19:16:18.604Z,2.2
2023-11-18T19:21:19.291Z,3.9
2023-11-18T19:26:18.403Z,12.0
2023-11-18T19:31:18.224Z,7.5
2023-11-18T19:36:18.205Z,6.8
2023-11-18T19:41:18.135Z,25.2
2023-11-18T19:46:18.193Z,8.2
2023-11-18T19:51:18.064Z,18.4
2023-11-18T19:56:18.109Z,2.6
2023-11-18T20:01:19.049Z,5.0
2023-11-18T20:06:17.884Z,5.8
2023-11-18T20:11:17.883Z,7.0
2023-11-18T20:16:17.746Z,7.6
2023-11-18T20:21:17.864Z,3.2
2023-11-18T20:26:17.889Z,1.6
2023-11-18T20:31:17.845Z,1.4
2023-11-18T20:36:17.910Z,1.8
2023-11-18T20:41:20.329Z,1.6
2023-11-18T20:46:17.459Z,1.4
2023-11-18T20:51:17.510Z,1.1
2023-11-18T20:56:17.351Z,1.6
2023-11-18T21:01:17.230Z,1.6
2023-11-18T21:06:21.606Z,2.1
2023-11-18T21:11:18.264Z,1.9
2023-11-18T21:16:17.160Z,1.9
2023-11-18T21:21:17.106Z,2.2
2023-11-18T21:26:17.128Z,1.9
2023-11-18T21:31:16.919Z,4.0
2023-11-18T21:36:16.882Z,2.0
2023-11-18T21:41:17.024Z,2.3
2023-11-18T21:46:16.782Z,3.1
2023-11-18T21:51:18.825Z,1.6
2023-11-18T21:56:16.727Z,2.5
2023-11-18T22:01:16.583Z,4.3
2023-11-18T22:06:19.970Z,3.7
2023-11-18T22:11:20.131Z,2.6
2023-11-18T22:16:16.477Z,5.8
2023-11-18T22:21:16.378Z,3.7
2023-11-18T22:26:16.332Z,3.8
2023-11-18T22:31:16.464Z,3.5
2023-11-18T22:36:16.221Z,3.0
2023-11-18T22:41:17.176Z,2.9
2023-11-18T22:46:16.246Z,3.0
2023-11-18T22:51:16.206Z,2.9
2023-11-18T22:56:16.096Z,2.7
2023-11-18T23:01:15.969Z,2.7
2023-11-18T23:06:15.928Z,2.7
2023-11-18T23:11:15.851Z,2.2
2023-11-18T23:16:15.810Z,2.1
2023-11-18T23:21:16.061Z,3.1
2023-11-18T23:26:15.663Z,2.2
2023-11-18T23:31:15.639Z,2.4
2023-11-18T23:36:15.591Z,2.4
2023-11-18T23:41:15.532Z,2.3
2023-11-18T23:46:15.735Z,1.8
2023-11-18T23:51:15.482Z,2.3
2023-11-18T23:56:15.372Z,2.5
